Time;durP1;ratioP1;P1;durP2;ratioP2;P2;SDS_P1;SDS_P2;PMS_P1;PMS_P2;Temp;Humidity;BMP_temperature;BMP_pressure;BME280_temperature;BME280_humidity;BME280_pressure;Samples;Min_cycle;Max_cycle;Signal;HPM_P1;HPM_P2
2022/12/08 00:01:11;;;;;;;2.17;1.10;;;;;;;8.28;58.59;94941.81;5053401;28;20200;-64
2022/12/08 00:03:38;;;;;;;0.65;0.65;;;;;;;8.07;59.60;94950.34;5063430;28;20204;-65
2022/12/08 00:11:42;;;;;;;0.95;0.95;;;;;;;8.38;58.79;94947.16;5058696;28;20564;-65
2022/12/08 00:14:09;;;;;;;1.08;1.08;;;;;;;8.63;57.85;94960.56;5073325;28;20199;-66
2022/12/08 00:16:36;;;;;;;2.40;1.40;;;;;;;8.43;58.33;94969.97;5057475;28;20815;-67
2022/12/08 00:19:03;;;;;;;1.38;0.65;;;;;;;8.57;58.13;94974.63;5071991;28;20223;-65
2022/12/08 00:21:30;;;;;;;3.30;1.95;;;;;;;8.55;57.92;94974.06;5054894;28;20211;-65
2022/12/08 00:23:57;;;;;;;0.30;0.30;;;;;;;8.37;58.37;94969.09;5061177;28;20249;-67
2022/12/08 00:26:23;;;;;;;0.20;0.20;;;;;;;8.46;58.26;94970.28;5072218;28;20613;-68
2022/12/08 00:28:50;;;;;;;0.60;0.55;;;;;;;8.61;57.65;94970.47;5071868;28;20239;-67
2022/12/08 00:31:17;;;;;;;1.48;1.27;;;;;;;8.35;58.74;94973.78;5071783;28;20196;-64
2022/12/08 00:33:44;;;;;;;0.73;0.73;;;;;;;8.44;58.12;94982.78;5057749;28;20376;-65
2022/12/08 00:36:13;;;;;;;0.20;0.20;;;;;;;8.33;57.95;94977.63;5060904;28;20200;-65
2022/12/08 00:38:40;;;;;;;2.10;1.35;;;;;;;8.41;57.41;94972.78;5069410;28;20207;-64
2022/12/08 00:42:10;;;;;;;0.20;0.20;;;;;;;8.40;57.33;94981.66;5071788;28;20231;-65
2022/12/08 00:44:07;;;;;;;2.53;2.33;;;;;;;7.82;58.64;94989.06;5065367;28;20193;-66
2022/12/08 00:46:35;;;;;;;0.60;0.60;;;;;;;7.75;59.48;94998.88;5064243;28;20196;-66
2022/12/08 00:49:03;;;;;;;1.70;1.33;;;;;;;7.73;59.60;95000.91;5071158;28;20613;-67
2022/12/08 00:51:30;;;;;;;1.58;1.48;;;;;;;7.84;59.20;94994.84;5059808;28;20189;-66
2022/12/08 00:53:57;;;;;;;1.35;1.25;;;;;;;7.93;58.78;94985.59;5051664;28;20211;-65
2022/12/08 00:56:25;;;;;;;0.98;0.98;;;;;;;7.79;58.17;94990.31;5057653;28;20188;-67
2022/12/08 00:58:52;;;;;;;2.08;0.95;;;;;;;7.75;58.97;94993.66;5071506;28;20594;-66
2022/12/08 01:01:19;;;;;;;1.23;1.20;;;;;;;7.50;61.04;94990.59;5052784;28;20235;-65
2022/12/08 01:03:46;;;;;;;0.28;0.28;;;;;;;7.62;59.74;94973.88;5051658;28;20200;-66
2022/12/08 01:06:13;;;;;;;0.40;0.40;;;;;;;7.37;60.71;94977.84;5050456;28;20634;-66
2022/12/08 01:08:41;;;;;;;4.50;1.98;;;;;;;7.57;59.95;94970.41;5050756;28;20727;-66
2022/12/08 01:11:16;;;;;;;4.00;2.13;;;;;;;7.61;59.84;94976.72;5052046;28;20235;-67
2022/12/08 01:13:44;;;;;;;1.77;1.35;;;;;;;6.75;61.16;94985.50;5062446;28;20619;-65
2022/12/08 01:16:22;;;;;;;1.17;1.13;;;;;;;7.24;60.34;94993.75;5065614;28;20254;-66
2022/12/08 01:18:49;;;;;;;2.38;1.48;;;;;;;7.04;62.11;94992.34;5062793;28;20200;-67
2022/12/08 01:21:17;;;;;;;2.30;2.10;;;;;;;7.25;61.08;94992.72;5051663;28;20194;-66
2022/12/08 01:23:45;;;;;;;2.80;1.85;;;;;;;7.37;60.30;94996.91;5070863;28;20249;-66
2022/12/08 01:26:13;;;;;;;2.65;2.45;;;;;;;7.68;59.65;94993.00;5070925;28;20226;-66
2022/12/08 01:28:41;;;;;;;0.40;0.40;;;;;;;7.48;60.18;94987.44;5066823;28;20228;-66
2022/12/08 01:31:14;;;;;;;2.25;2.05;;;;;;;7.01;61.65;94992.81;5060550;28;20235;-66
2022/12/08 01:33:41;;;;;;;1.00;0.98;;;;;;;7.26;60.93;94983.91;5052380;28;20283;-65
2022/12/08 01:36:19;;;;;;;0.20;0.20;;;;;;;7.24;61.04;94980.72;5064953;28;20249;-66
2022/12/08 01:38:46;;;;;;;0.68;0.68;;;;;;;6.98;60.96;94982.84;5070406;28;20208;-65
2022/12/08 01:41:15;;;;;;;1.35;1.27;;;;;;;6.98;61.47;94982.84;5070785;28;20192;-65
2022/12/08 01:44:22;;;;;;;0.80;0.80;;;;;;;7.07;60.85;94978.88;5056439;28;20291;-64
2022/12/08 01:46:52;;;;;;;11.02;2.75;;;;;;;7.12;61.07;94976.34;5072621;28;20192;-65
2022/12/08 01:49:29;;;;;;;1.90;1.50;;;;;;;7.10;60.72;94965.38;5051834;28;20224;-65
2022/12/08 01:52:05;;;;;;;2.95;1.15;;;;;;;7.28;60.48;94950.59;5055496;28;20667;-66
2022/12/08 01:54:38;;;;;;;1.30;1.27;;;;;;;7.00;61.09;94957.38;5054320;28;20811;-65
2022/12/08 01:57:14;;;;;;;0.88;0.88;;;;;;;7.39;60.03;94962.78;5058884;28;20275;-64
2022/12/08 01:59:47;;;;;;;1.52;1.42;;;;;;;7.12;60.68;94960.72;5054882;28;20575;-67
2022/12/08 02:02:40;;;;;;;1.15;1.15;;;;;;;7.03;61.00;94949.06;5069651;28;20191;-65
2022/12/08 02:05:08;;;;;;;0.60;0.60;;;;;;;7.21;60.00;94949.94;5070036;28;20196;-66
2022/12/08 02:07:36;;;;;;;0.65;0.65;;;;;;;7.00;60.03;94946.16;5069510;28;20792;-65
2022/12/08 02:10:03;;;;;;;2.58;2.38;;;;;;;7.41;59.06;94950.31;5070063;28;20766;-67
2022/12/08 02:12:31;;;;;;;0.08;0.08;;;;;;;6.85;60.77;94951.84;5057463;28;20193;-67
2022/12/08 02:14:58;;;;;;;0.88;0.88;;;;;;;7.03;61.26;94963.91;5063835;28;20600;-67
2022/12/08 02:17:52;;;;;;;2.15;1.13;;;;;;;7.17;61.00;94955.59;5049598;28;20201;-65
2022/12/08 02:20:58;;;;;;;1.42;1.17;;;;;;;7.00;61.40;94951.34;5056865;28;20833;-67
2022/12/08 02:23:34;;;;;;;6.45;4.00;;;;;;;7.34;60.44;94958.25;5055793;28;20261;-65
2022/12/08 02:26:04;;;;;;;2.28;1.55;;;;;;;6.94;61.94;94950.47;5069430;28;20195;-66
2022/12/08 02:28:57;;;;;;;0.50;0.50;;;;;;;6.96;61.70;94947.63;5068993;28;20226;-69
2022/12/08 02:31:36;;;;;;;0.25;0.25;;;;;;;7.00;61.29;94952.16;5037683;28;20220;-65
2022/12/08 02:34:35;;;;;;;0.32;0.32;;;;;;;7.39;60.23;94942.69;5057562;28;20195;-66
2022/12/08 02:37:18;;;;;;;0.90;0.90;;;;;;;7.37;59.29;94949.19;5020772;28;20197;-66
2022/12/08 02:39:51;;;;;;;0.13;0.13;;;;;;;7.44;59.67;94955.03;5062034;28;20725;-66
2022/12/08 02:42:30;;;;;;;0.35;0.35;;;;;;;7.29;59.86;94932.09;5063624;28;20196;-65
2022/12/08 02:45:08;;;;;;;0.47;0.47;;;;;;;7.49;59.42;94958.53;5062682;28;20235;-67
2022/12/08 02:47:35;;;;;;;5.28;1.42;;;;;;;7.26;60.60;94953.44;5049096;28;20247;-66
2022/12/08 02:50:03;;;;;;;0.90;0.88;;;;;;;6.88;60.52;94930.53;5062425;28;20633;-65
2022/12/08 02:52:30;;;;;;;2.25;2.05;;;;;;;7.13;59.11;94923.19;5053152;28;20288;-66
2022/12/08 02:55:13;;;;;;;1.65;1.55;;;;;;;7.09;59.66;94929.94;5057097;28;20199;-64
2022/12/08 02:57:57;;;;;;;0.85;0.77;;;;;;;7.00;60.62;94939.13;5066743;28;20249;-66
2022/12/08 03:00:28;;;;;;;0.50;0.50;;;;;;;6.49;62.56;94946.94;5060000;28;20203;-66
2022/12/08 03:03:32;;;;;;;1.38;1.27;;;;;;;6.86;61.98;94937.78;5054533;28;20740;-65
2022/12/08 03:06:35;;;;;;;0.35;0.35;;;;;;;7.19;61.64;94944.94;5053837;28;20677;-63
2022/12/08 03:09:11;;;;;;;0.30;0.30;;;;;;;6.98;61.79;94950.78;5069097;28;20219;-66
2022/12/08 03:11:48;;;;;;;2.75;2.17;;;;;;;6.74;61.87;94957.88;5068868;28;20191;-64
2022/12/08 03:14:17;;;;;;;0.98;0.52;;;;;;;6.97;62.00;94954.44;5069242;28;20667;-66
2022/12/08 03:16:48;;;;;;;3.05;0.93;;;;;;;6.82;62.07;94952.31;5068715;28;20667;-66
2022/12/08 03:19:19;;;;;;;2.45;1.77;;;;;;;6.70;62.51;94946.34;5068646;28;20289;-66
2022/12/08 03:21:51;;;;;;;6.57;2.55;;;;;;;6.54;62.93;94939.25;5064223;28;20588;-67
2022/12/08 03:24:21;;;;;;;0.47;0.47;;;;;;;6.78;62.15;94946.00;5060658;28;20207;-66
2022/12/08 03:26:58;;;;;;;1.00;0.93;;;;;;;6.64;62.63;94943.88;5054584;28;20666;-65
2022/12/08 03:29:25;;;;;;;1.23;1.20;;;;;;;6.64;61.38;94939.44;5068586;28;20619;-65
2022/12/08 03:32:00;;;;;;;0.70;0.70;;;;;;;6.59;60.52;94926.31;5068730;28;20188;-65
2022/12/08 03:34:28;;;;;;;2.42;1.92;;;;;;;6.52;61.14;94933.47;5052422;28;20856;-65
2022/12/08 03:36:55;;;;;;;0.75;0.75;;;;;;;6.33;61.09;94947.66;5069783;28;20180;-65
2022/12/08 03:39:23;;;;;;;3.53;3.17;;;;;;;5.52;64.22;94944.94;5072797;28;20206;-66
2022/12/08 03:41:50;;;;;;;2.00;1.90;;;;;;;5.70;64.76;94947.47;5058378;28;20256;-65
2022/12/08 03:44:16;;;;;;;0.20;0.20;;;;;;;5.72;64.05;94955.03;5054869;28;20222;-66
2022/12/08 03:46:44;;;;;;;0.50;0.50;;;;;;;6.01;64.28;94956.78;5072821;28;20265;-66
2022/12/08 03:49:11;;;;;;;0.85;0.85;;;;;;;6.13;63.40;94953.19;5058404;28;20300;-67
2022/12/08 03:51:38;;;;;;;4.97;3.53;;;;;;;6.23;63.37;94965.63;5063830;28;20215;-67
2022/12/08 03:54:05;;;;;;;4.50;1.75;;;;;;;6.38;63.10;94955.56;5067042;28;20226;-66
2022/12/08 03:56:37;;;;;;;2.60;2.20;;;;;;;6.57;62.58;94964.03;5065581;28;20254;-66
2022/12/08 03:59:05;;;;;;;0.65;0.65;;;;;;;6.24;63.74;94956.78;5066009;28;20199;-66
2022/12/08 04:01:32;;;;;;;0.65;0.65;;;;;;;6.36;63.55;94965.41;5058274;28;20316;-64
2022/12/08 04:03:59;;;;;;;0.32;0.32;;;;;;;6.43;63.33;94963.47;5059830;28;20204;-66
2022/12/08 04:06:26;;;;;;;1.83;1.65;;;;;;;6.58;63.00;94950.78;5065945;28;20687;-66
2022/12/08 04:08:53;;;;;;;34.80;3.20;;;;;;;6.86;60.96;94943.00;5062748;28;20299;-66
2022/12/08 04:11:20;;;;;;;0.50;0.50;;;;;;;6.52;62.14;94945.69;5071953;28;20269;-66
2022/12/08 04:13:47;;;;;;;6.22;2.40;;;;;;;6.56;62.49;94968.44;5062875;28;20208;-65
2022/12/08 04:16:25;;;;;;;2.28;2.03;;;;;;;6.50;62.80;94964.13;5051770;28;20192;-64
2022/12/08 04:18:52;;;;;;;1.95;1.65;;;;;;;6.40;62.98;94963.94;5051727;28;20614;-65
2022/12/08 04:21:19;;;;;;;0.63;0.63;;;;;;;6.69;61.68;94963.00;5051873;28;20204;-67
2022/12/08 04:23:46;;;;;;;1.35;1.00;;;;;;;6.39;62.21;94962.34;5059294;28;20218;-66
2022/12/08 04:26:13;;;;;;;3.13;2.60;;;;;;;6.24;62.51;94956.00;5072161;28;20288;-66
2022/12/08 04:28:40;;;;;;;0.55;0.55;;;;;;;6.35;62.82;94961.19;5071863;28;20321;-66
2022/12/08 04:31:07;;;;;;;2.03;1.83;;;;;;;6.46;62.86;94957.78;5071955;28;20223;-66
2022/12/08 04:33:35;;;;;;;0.55;0.55;;;;;;;6.56;61.94;94967.63;5056969;28;20474;-65
2022/12/08 04:36:03;;;;;;;2.80;2.55;;;;;;;6.48;62.00;94971.38;5071983;28;20259;-68
2022/12/08 04:38:31;;;;;;;0.90;0.88;;;;;;;6.52;61.14;94980.31;5071582;28;20682;-66
2022/12/08 04:40:58;;;;;;;5.00;1.33;;;;;;;6.34;61.93;94964.84;5071035;28;20278;-65
2022/12/08 04:43:25;;;;;;;2.08;1.48;;;;;;;6.39;61.48;94966.75;5071530;28;20191;-64
2022/12/08 04:45:52;;;;;;;0.52;0.52;;;;;;;6.52;61.70;94977.72;5064675;28;20204;-64
2022/12/08 04:48:19;;;;;;;2.25;2.15;;;;;;;6.56;60.94;94972.84;5063597;28;20293;-65
2022/12/08 04:50:46;;;;;;;8.77;4.05;;;;;;;6.59;61.51;94977.59;5055625;28;20227;-66
2022/12/08 04:53:13;;;;;;;0.95;0.95;;;;;;;6.60;61.37;94968.78;5059307;28;20200;-66
2022/12/08 04:55:42;;;;;;;2.13;1.95;;;;;;;6.62;60.69;94975.34;5071292;28;20261;-65
2022/12/08 04:58:19;;;;;;;3.65;1.92;;;;;;;6.55;61.02;94979.09;5064794;28;20205;-65
2022/12/08 05:00:46;;;;;;;0.52;0.52;;;;;;;6.68;63.38;94973.63;5050570;28;20670;-66
2022/12/08 05:03:14;;;;;;;2.28;2.15;;;;;;;6.78;62.09;94972.03;5051426;28;20200;-65
2022/12/08 05:05:42;;;;;;;0.88;0.77;;;;;;;6.75;61.47;94980.28;5064913;28;20302;-66
2022/12/08 05:08:09;;;;;;;2.35;2.17;;;;;;;6.83;61.36;94979.94;5059101;28;20271;-64
2022/12/08 05:10:36;;;;;;;4.32;3.97;;;;;;;6.74;60.64;94978.72;5056735;28;20347;-67
2022/12/08 05:13:03;;;;;;;4.55;2.45;;;;;;;6.72;61.29;94988.56;5064914;28;20283;-66
2022/12/08 05:15:30;;;;;;;13.80;6.65;;;;;;;6.85;60.67;94983.09;5050749;28;20208;-64
2022/12/08 05:17:57;;;;;;;6.82;4.97;;;;;;;6.85;60.19;94985.72;5069442;28;20674;-63
2022/12/08 05:20:24;;;;;;;7.53;4.45;;;;;;;6.80;60.29;94985.63;5071055;28;20199;-65
2022/12/08 05:25:37;;;;;;;7.88;3.78;;;;;;;6.64;61.01;94996.72;5071021;28;20215;-65
2022/12/08 05:28:04;;;;;;;7.72;5.95;;;;;;;6.43;62.14;95005.09;5056698;28;20245;-64
2022/12/08 05:30:51;;;;;;;3.80;3.38;;;;;;;6.53;61.32;95010.53;5064970;28;20294;-64
2022/12/08 05:33:19;;;;;;;3.15;2.85;;;;;;;6.63;61.36;95005.56;5052303;28;20258;-66
2022/12/08 05:35:45;;;;;;;4.20;3.10;;;;;;;6.48;60.79;94994.81;5069284;28;20249;-65
2022/12/08 05:38:12;;;;;;;5.18;2.67;;;;;;;6.61;61.29;95007.59;5056180;28;20228;-63
2022/12/08 05:40:40;;;;;;;6.78;2.75;;;;;;;6.04;63.63;95016.16;5063953;28;20227;-65
2022/12/08 05:43:08;;;;;;;4.25;3.88;;;;;;;6.29;63.74;95014.16;5066282;28;20196;-62
2022/12/08 05:45:35;;;;;;;1.52;1.42;;;;;;;6.46;61.77;94991.63;5069996;28;20275;-64
2022/12/08 05:48:03;;;;;;;7.10;5.05;;;;;;;6.61;62.16;95012.78;5068832;28;20277;-62
2022/12/08 05:50:29;;;;;;;5.25;2.60;;;;;;;6.45;62.00;95023.91;5052908;28;20273;-65
2022/12/08 05:52:56;;;;;;;2.78;2.42;;;;;;;6.38;61.91;95017.22;5049456;28;20224;-64
2022/12/08 05:55:23;;;;;;;2.53;2.38;;;;;;;6.31;61.77;95001.72;5050345;28;20219;-64
2022/12/08 05:57:50;;;;;;;2.33;2.03;;;;;;;6.43;61.87;95015.53;5052809;28;20311;-64
2022/12/08 06:00:18;;;;;;;3.75;3.42;;;;;;;6.48;61.13;95013.03;5046983;28;20220;-63
2022/12/08 06:02:45;;;;;;;2.15;2.05;;;;;;;6.46;60.73;95009.84;5047128;28;20425;-60
2022/12/08 06:05:12;;;;;;;26.98;4.47;;;;;;;6.09;62.90;95008.50;5068479;28;20187;-62
2022/12/08 06:07:38;;;;;;;6.88;3.00;;;;;;;6.08;62.96;95018.09;5059270;28;20753;-64
2022/12/08 06:10:06;;;;;;;1.60;1.55;;;;;;;6.26;63.05;95012.00;5066694;28;20212;-66
2022/12/08 06:12:33;;;;;;;3.33;2.72;;;;;;;6.47;63.92;95008.84;5062359;28;20185;-65
2022/12/08 06:15:00;;;;;;;2.22;2.13;;;;;;;6.58;62.30;95013.25;5057213;28;20290;-64
2022/12/08 06:17:27;;;;;;;2.35;2.15;;;;;;;6.31;62.91;95019.94;5069914;28;20629;-66
2022/12/08 06:19:54;;;;;;;1.30;1.20;;;;;;;6.62;61.97;95024.81;5064276;28;21075;-65
2022/12/08 06:22:21;;;;;;;2.20;2.00;;;;;;;6.63;61.96;95021.19;5061575;28;20287;-64
2022/12/08 06:24:47;;;;;;;2.47;1.80;;;;;;;6.60;61.31;95034.66;5065506;28;20235;-65
2022/12/08 06:27:14;;;;;;;9.15;4.38;;;;;;;6.54;61.30;95040.75;5059967;28;20196;-63
2022/12/08 06:29:41;;;;;;;3.72;2.50;;;;;;;6.59;60.75;95040.88;5069249;28;20208;-66
2022/12/08 06:32:08;;;;;;;3.22;2.95;;;;;;;6.48;61.03;95033.84;5064016;28;20637;-64
2022/12/08 06:34:35;;;;;;;4.03;3.17;;;;;;;6.44;61.60;95037.91;5050273;28;20212;-65
2022/12/08 06:37:02;;;;;;;1.88;1.75;;;;;;;6.14;62.87;95034.63;5067614;28;20198;-65
2022/12/08 06:39:28;;;;;;;8.85;4.57;;;;;;;5.98;63.92;95048.28;5059990;28;20334;-66
2022/12/08 06:44:41;;;;;;;3.17;1.90;;;;;;;6.22;63.52;95043.91;5069971;28;20208;-67
2022/12/08 06:47:08;;;;;;;4.00;2.17;;;;;;;6.39;62.97;95030.00;5069121;28;20230;-67
2022/12/08 06:49:34;;;;;;;3.85;2.13;;;;;;;6.67;62.70;95039.72;5060329;28;20207;-64
2022/12/08 06:52:01;;;;;;;3.80;2.70;;;;;;;6.89;62.50;95030.31;5052546;28;20216;-65
2022/12/08 06:54:28;;;;;;;2.38;2.28;;;;;;;7.00;62.36;95019.88;5067298;28;20731;-65
2022/12/08 06:56:55;;;;;;;6.95;5.22;;;;;;;7.19;62.01;95026.50;5059004;28;20569;-65
2022/12/08 06:59:24;;;;;;;6.85;3.60;;;;;;;7.25;60.96;95021.38;5065551;28;20257;-65
2022/12/08 07:01:51;;;;;;;3.22;2.95;;;;;;;7.04;62.01;95017.63;5068730;28;20265;-66
2022/12/08 07:04:18;;;;;;;2.08;1.98;;;;;;;6.47;63.26;95027.06;5068213;28;20720;-67
2022/12/08 07:06:45;;;;;;;4.80;3.17;;;;;;;6.96;62.46;95036.19;5068906;28;20638;-68
2022/12/08 07:09:12;;;;;;;1.70;1.60;;;;;;;7.13;62.54;95027.44;5069617;28;20227;-68
2022/12/08 07:11:39;;;;;;;2.15;1.67;;;;;;;7.22;61.95;95036.47;5054944;28;20223;-66
2022/12/08 07:14:05;;;;;;;5.63;4.65;;;;;;;7.21;62.48;95047.13;5057875;28;20199;-66
2022/12/08 07:16:32;;;;;;;13.40;2.47;;;;;;;6.66;63.86;95051.94;5049498;28;20289;-64
2022/12/08 07:18:59;;;;;;;7.10;3.63;;;;;;;7.22;62.57;95046.88;5049646;28;20718;-66
2022/12/08 07:21:26;;;;;;;3.88;3.50;;;;;;;6.74;63.49;95050.81;5063067;28;20245;-66
2022/12/08 07:23:53;;;;;;;3.63;3.33;;;;;;;6.88;63.44;95045.16;5049314;28;20198;-65
2022/12/08 07:26:24;;;;;;;1.23;1.13;;;;;;;6.95;63.38;95051.03;5049210;28;20199;-65
2022/12/08 07:28:50;;;;;;;6.78;4.32;;;;;;;7.18;62.79;95058.03;5057093;28;20675;-66
2022/12/08 07:31:20;;;;;;;5.00;3.92;;;;;;;7.15;62.77;95067.06;5058820;28;21013;-63
2022/12/08 07:33:49;;;;;;;3.95;3.65;;;;;;;7.16;63.33;95068.69;5059231;28;21000;-64
2022/12/08 07:36:16;;;;;;;6.47;3.55;;;;;;;7.02;63.29;95072.56;5061131;28;20192;-66
2022/12/08 07:38:43;;;;;;;5.25;4.35;;;;;;;7.55;62.51;95068.91;5067154;28;20231;-67
2022/12/08 07:41:12;;;;;;;5.32;4.10;;;;;;;7.07;63.50;95075.25;5058907;28;20676;-65
2022/12/08 07:43:39;;;;;;;12.95;6.03;;;;;;;7.30;63.19;95068.44;5063583;28;20287;-67
2022/12/08 07:46:07;;;;;;;4.72;4.00;;;;;;;7.55;62.41;95056.69;5058045;28;20232;-64
2022/12/08 07:48:34;;;;;;;2.03;1.92;;;;;;;7.02;63.23;95066.53;5054094;28;20349;-64
2022/12/08 07:51:03;;;;;;;3.22;2.97;;;;;;;7.33;62.69;95060.94;5049138;28;20224;-64
2022/12/08 07:53:30;;;;;;;3.97;3.63;;;;;;;7.50;62.65;95058.41;5059573;28;20230;-66
2022/12/08 07:55:58;;;;;;;8.85;4.25;;;;;;;7.40;63.14;95069.41;5067102;28;20688;-65
2022/12/08 07:58:26;;;;;;;5.68;4.53;;;;;;;7.42;62.91;95069.19;5058517;28;20195;-65
2022/12/08 08:00:53;;;;;;;3.45;3.22;;;;;;;7.59;62.46;95067.44;5055240;28;20200;-66
2022/12/08 08:03:21;;;;;;;0.30;0.30;;;;;;;7.60;62.17;95053.34;5069885;28;20215;-66
2022/12/08 08:05:49;;;;;;;7.55;6.03;;;;;;;7.75;61.50;95056.25;5055872;28;20578;-64
2022/12/08 08:08:16;;;;;;;5.88;5.10;;;;;;;7.64;62.45;95054.47;5054769;28;20218;-68
2022/12/08 08:10:45;;;;;;;3.85;3.55;;;;;;;7.34;62.79;95065.13;5057260;28;20220;-64
2022/12/08 08:13:12;;;;;;;4.63;2.70;;;;;;;7.61;62.40;95054.97;5067880;28;20200;-66
2022/12/08 08:15:39;;;;;;;5.82;5.20;;;;;;;7.53;63.33;95057.91;5059383;28;20804;-65
2022/12/08 08:18:06;;;;;;;4.13;3.50;;;;;;;8.00;62.20;95057.50;5069710;28;20207;-65
2022/12/08 08:20:33;;;;;;;3.15;2.75;;;;;;;7.95;62.13;95067.03;5072951;28;20195;-64
2022/12/08 08:23:00;;;;;;;9.70;3.35;;;;;;;7.80;63.13;95067.56;5058347;28;20293;-66
2022/12/08 08:25:27;;;;;;;2.78;2.58;;;;;;;7.72;62.96;95067.16;5066183;28;20262;-67
2022/12/08 08:27:54;;;;;;;3.88;3.50;;;;;;;8.23;62.14;95074.06;5052503;28;20258;-66
2022/12/08 08:30:22;;;;;;;1.42;1.33;;;;;;;8.17;61.70;95070.56;5058640;28;20302;-64
2022/12/08 08:32:49;;;;;;;3.07;2.80;;;;;;;8.46;61.38;95066.88;5061792;28;20189;-68
2022/12/08 08:35:16;;;;;;;3.25;2.72;;;;;;;8.48;60.60;95050.97;5070863;28;20770;-62
2022/12/08 08:37:43;;;;;;;6.25;3.97;;;;;;;8.52;60.90;95055.47;5074118;28;20188;-64
2022/12/08 08:40:16;;;;;;;4.43;4.10;;;;;;;8.55;61.45;95062.06;5072695;28;20686;-64
2022/12/08 08:42:43;;;;;;;1.38;1.25;;;;;;;8.31;62.46;95066.63;5072923;28;20253;-67
2022/12/08 08:45:11;;;;;;;1.93;1.83;;;;;;;8.82;61.19;95065.59;5058425;28;20205;-66
2022/12/08 08:47:37;;;;;;;1.83;1.67;;;;;;;8.59;61.57;95069.19;5065629;28;20513;-66
2022/12/08 08:50:05;;;;;;;0.97;0.90;;;;;;;8.60;61.50;95060.31;5052722;28;20617;-64
2022/12/08 08:52:33;;;;;;;0.98;0.98;;;;;;;9.25;60.25;95052.59;5055781;28;20435;-67
2022/12/08 08:54:59;;;;;;;5.47;3.37;;;;;;;9.53;59.15;95060.25;5061107;28;20222;-63
2022/12/08 08:57:26;;;;;;;7.67;5.80;;;;;;;10.00;58.54;95050.00;5072667;28;20520;-65
2022/12/08 08:59:54;;;;;;;8.60;2.73;;;;;;;10.53;57.88;95046.56;5072979;28;20488;-66
2022/12/08 09:02:21;;;;;;;2.87;2.20;;;;;;;10.83;56.76;95039.69;5059391;28;20451;-68
2022/12/08 09:04:48;;;;;;;4.03;2.67;;;;;;;11.08;55.12;95034.59;5071612;28;20503;-67
2022/12/08 09:07:15;;;;;;;1.60;1.50;;;;;;;11.54;54.72;95024.28;5072703;28;20519;-65
2022/12/08 09:09:42;;;;;;;2.60;2.37;;;;;;;11.71;54.24;95030.16;5069241;28;20435;-68
2022/12/08 09:12:09;;;;;;;3.83;3.43;;;;;;;12.08;52.87;95025.47;5061836;28;20470;-63
2022/12/08 09:14:36;;;;;;;2.63;2.40;;;;;;;12.20;52.84;95024.22;5070245;28;20450;-64
2022/12/08 09:17:03;;;;;;;4.73;2.00;;;;;;;12.51;51.79;95009.22;5052102;28;20440;-64
2022/12/08 09:19:31;;;;;;;1.73;1.60;;;;;;;12.42;51.28;95015.28;5065872;28;20442;-66
2022/12/08 09:21:58;;;;;;;49.13;4.63;;;;;;;12.45;51.53;94999.75;5071945;28;20450;-65
2022/12/08 09:24:26;;;;;;;1.60;1.37;;;;;;;12.10;51.07;95002.38;5059439;28;20439;-66
2022/12/08 09:26:52;;;;;;;4.73;2.27;;;;;;;12.36;51.39;94990.84;5056266;28;20967;-65
2022/12/08 09:29:38;;;;;;;1.23;1.07;;;;;;;12.24;51.93;94998.19;5070419;28;20563;-67
2022/12/08 09:32:06;;;;;;;2.73;2.53;;;;;;;12.33;52.37;94990.56;5065092;28;20616;-67
2022/12/08 09:34:33;;;;;;;0.50;0.50;;;;;;;12.71;51.41;95003.94;5051171;28;21040;-65
2022/12/08 09:37:00;;;;;;;3.37;2.63;;;;;;;12.14;50.76;94998.19;5054649;28;20533;-64
2022/12/08 09:39:27;;;;;;;1.03;0.90;;;;;;;11.80;50.81;95002.34;5061754;28;21024;-65
2022/12/08 09:41:58;;;;;;;9.30;2.43;;;;;;;12.12;51.52;94984.53;5065089;28;20466;-68
2022/12/08 09:44:46;;;;;;;16.30;2.20;;;;;;;12.16;51.64;94989.00;5060438;28;20496;-66
2022/12/08 09:47:36;;;;;;;0.73;0.47;;;;;;;11.86;52.30;95001.31;5056529;28;20470;-66
2022/12/08 09:50:11;;;;;;;1.43;1.33;;;;;;;11.53;53.58;95001.72;5071193;28;20994;-66
2022/12/08 09:52:48;;;;;;;1.20;1.10;;;;;;;12.03;52.51;94986.88;5053978;28;21034;-67
2022/12/08 09:55:24;;;;;;;4.23;1.30;;;;;;;12.48;51.85;94988.72;5062122;28;20442;-69
2022/12/08 09:58:01;;;;;;;1.70;1.27;;;;;;;12.83;51.23;94980.78;5057773;28;20987;-65
2022/12/08 10:00:28;;;;;;;1.80;1.70;;;;;;;12.35;51.11;94955.09;5071627;28;20450;-66
2022/12/08 10:02:56;;;;;;;3.83;2.83;;;;;;;12.46;51.06;94974.28;5071266;28;21016;-65
2022/12/08 10:05:27;;;;;;;3.03;2.53;;;;;;;12.46;51.12;94971.66;5061087;28;20435;-66
2022/12/08 10:08:24;;;;;;;1.93;1.83;;;;;;;12.47;51.84;94960.88;5053499;28;20449;-66
2022/12/08 10:11:01;;;;;;;2.87;2.60;;;;;;;12.54;51.27;94955.31;5071100;28;20470;-66
2022/12/08 10:14:07;;;;;;;0.60;0.60;;;;;;;12.58;50.87;94957.16;5070653;28;20434;-66
2022/12/08 10:16:44;;;;;;;3.87;2.03;;;;;;;12.82;50.46;94939.78;5045596;28;20868;-66
2022/12/08 10:19:20;;;;;;;2.90;1.43;;;;;;;12.89;50.33;94936.84;5058971;28;20449;-65
2022/12/08 10:21:47;;;;;;;6.10;3.00;;;;;;;13.27;49.58;94935.41;5055775;28;20450;-64
2022/12/08 10:24:30;;;;;;;1.63;1.53;;;;;;;13.28;49.81;94939.63;5071152;28;20492;-62
2022/12/08 10:26:57;;;;;;;19.83;3.23;;;;;;;13.63;49.27;94942.06;5070334;28;20453;-65
2022/12/08 10:29:24;;;;;;;7.13;3.40;;;;;;;13.67;48.88;94953.59;5070849;28;20977;-65
2022/12/08 10:31:51;;;;;;;1.63;1.53;;;;;;;13.81;48.21;94944.81;5053367;28;20525;-66
2022/12/08 10:34:22;;;;;;;0.70;0.70;;;;;;;13.59;48.93;94941.81;5059882;28;20480;-65
2022/12/08 10:36:55;;;;;;;2.00;0.80;;;;;;;13.54;48.59;94938.44;5070408;28;20522;-65
2022/12/08 10:39:39;;;;;;;0.40;0.40;;;;;;;13.33;49.11;94921.97;5071489;28;20442;-65
2022/12/08 10:42:13;;;;;;;2.00;1.87;;;;;;;13.57;48.85;94927.34;5070536;28;20445;-65
2022/12/08 10:45:08;;;;;;;3.20;0.93;;;;;;;12.99;48.69;94924.44;5070159;28;20442;-68
2022/12/08 10:47:40;;;;;;;0.37;0.37;;;;;;;13.12;47.89;94934.41;5056917;28;20919;-66
2022/12/08 10:50:22;;;;;;;0.20;0.20;;;;;;;13.41;47.78;94912.72;5070176;28;20434;-65
2022/12/08 10:53:07;;;;;;;4.70;2.03;;;;;;;13.34;47.98;94912.22;5055520;28;20507;-65
2022/12/08 10:56:00;;;;;;;0.53;0.53;;;;;;;13.16;49.26;94913.63;5069929;28;20450;-66
2022/12/08 10:58:40;;;;;;;2.43;1.40;;;;;;;12.59;49.15;94910.66;5049590;28;20450;-66
2022/12/08 11:01:20;;;;;;;0.27;0.27;;;;;;;12.63;50.01;94904.59;5063642;28;20914;-64
2022/12/08 11:03:54;;;;;;;0.57;0.53;;;;;;;12.98;48.78;94911.56;5060604;28;20545;-64
2022/12/08 11:06:21;;;;;;;0.83;0.53;;;;;;;12.89;49.05;94906.09;5055521;28;20437;-64
2022/12/08 11:08:52;;;;;;;0.87;0.87;;;;;;;12.92;49.94;94900.28;5069521;28;20855;-66
2022/12/08 11:11:21;;;;;;;1.60;0.90;;;;;;;13.03;49.35;94885.25;5066385;28;20478;-66
2022/12/08 11:13:55;;;;;;;1.90;1.40;;;;;;;12.46;49.73;94892.81;5059357;28;20479;-66
2022/12/08 11:16:22;;;;;;;1.20;1.00;;;;;;;12.71;49.26;94893.53;5069133;28;20842;-67
2022/12/08 11:19:05;;;;;;;1.43;1.33;;;;;;;12.81;49.19;94885.59;5060224;28;20474;-67
2022/12/08 11:21:36;;;;;;;3.30;1.10;;;;;;;12.95;49.71;94883.97;5051888;28;20454;-66
2022/12/08 11:24:22;;;;;;;0.23;0.23;;;;;;;12.72;49.33;94884.56;5069537;28;20541;-66
2022/12/08 11:27:01;;;;;;;11.93;1.70;;;;;;;12.87;49.71;94870.56;5038162;28;20948;-63
2022/12/08 11:29:31;;;;;;;2.17;1.70;;;;;;;13.00;49.80;94865.53;5069116;28;20445;-65
2022/12/08 11:32:00;;;;;;;0.17;0.17;;;;;;;13.05;49.84;94860.28;5050276;28;20514;-65
2022/12/08 11:35:04;;;;;;;1.90;0.77;;;;;;;13.10;49.90;94862.09;5060157;28;20445;-67
2022/12/08 11:37:42;;;;;;;0.77;0.77;;;;;;;13.13;49.56;94858.91;5069686;28;20446;-66
2022/12/08 11:40:22;;;;;;;2.03;1.53;;;;;;;13.15;49.58;94849.72;5067497;28;21058;-64
2022/12/08 11:43:16;;;;;;;2.40;1.77;;;;;;;12.71;49.65;94854.09;5049194;28;20445;-64
2022/12/08 11:45:45;;;;;;;0.83;0.83;;;;;;;13.34;49.48;94863.00;5068607;28;20457;-64
2022/12/08 11:48:14;;;;;;;1.67;1.17;;;;;;;13.94;49.06;94854.66;5068528;28;20556;-66
2022/12/08 11:50:50;;;;;;;3.10;1.57;;;;;;;14.57;47.63;94847.47;5068424;28;20867;-64
2022/12/08 11:53:42;;;;;;;1.20;1.10;;;;;;;14.47;46.01;94847.56;5060912;28;21282;-64
2022/12/08 11:56:19;;;;;;;1.23;1.17;;;;;;;14.88;46.37;94843.41;5068936;28;20453;-64
2022/12/08 11:58:54;;;;;;;0.60;0.60;;;;;;;15.37;46.11;94840.38;5052996;28;20509;-64
2022/12/08 12:01:24;;;;;;;0.90;0.60;;;;;;;15.15;45.74;94838.31;5052519;28;20446;-63
2022/12/08 12:04:27;;;;;;;1.37;1.27;;;;;;;15.72;44.63;94831.16;5064139;28;20469;-66
2022/12/08 12:07:00;;;;;;;0.10;0.10;;;;;;;16.66;43.54;94822.63;5060846;28;20524;-64
2022/12/08 12:09:46;;;;;;;0.10;0.10;;;;;;;16.73;42.40;94816.97;5070833;28;20454;-63